createdAt,value
2019-05-05T00:01:51.066Z,1.40
2019-05-05T00:04:42.813Z,1.53
2019-05-05T00:07:11.473Z,1.37
2019-05-05T00:09:37.991Z,1.63
2019-05-05T00:12:25.184Z,1.50
2019-05-05T00:15:14.568Z,1.20
2019-05-05T00:17:41.290Z,1.37
2019-05-05T00:20:07.917Z,1.83
2019-05-05T00:22:35.003Z,1.60
2019-05-05T00:25:01.606Z,1.50
2019-05-05T00:27:29.149Z,1.60
2019-05-05T00:29:55.645Z,1.93
2019-05-05T00:32:24.520Z,1.67
2019-05-05T00:34:51.118Z,2.10
2019-05-05T00:37:17.609Z,1.73
2019-05-05T00:39:45.239Z,2.00
2019-05-05T00:42:12.106Z,2.00
2019-05-05T00:44:38.613Z,2.20
2019-05-05T00:47:25.105Z,2.00
2019-05-05T00:49:52.670Z,2.13
2019-05-05T00:52:19.172Z,2.10
2019-05-05T00:54:46.005Z,1.80
2019-05-05T00:57:14.870Z,1.70
2019-05-05T00:59:41.109Z,2.13
2019-05-05T01:02:22.269Z,2.10
2019-05-05T01:05:11.249Z,1.97
2019-05-05T01:07:37.878Z,2.23
2019-05-05T01:10:05.656Z,2.10
2019-05-05T01:12:32.291Z,2.73
2019-05-05T01:14:58.958Z,2.40
2019-05-05T01:17:26.511Z,2.30
2019-05-05T01:20:01.128Z,2.87
2019-05-05T01:22:21.489Z,2.67
2019-05-05T01:24:47.941Z,2.40
2019-05-05T01:27:14.801Z,2.77
2019-05-05T01:29:41.546Z,2.80
2019-05-05T01:32:12.471Z,2.93
2019-05-05T01:34:44.386Z,2.83
2019-05-05T01:37:17.962Z,3.03
2019-05-05T01:40:00.176Z,2.80
2019-05-05T01:42:26.763Z,3.10
2019-05-05T01:44:55.135Z,3.60
2019-05-05T01:47:21.978Z,3.37
2019-05-05T01:49:48.444Z,3.10
2019-05-05T01:52:15.194Z,2.83
2019-05-05T01:54:41.653Z,3.53
2019-05-05T01:57:08.544Z,2.90
2019-05-05T01:59:36.133Z,3.33
2019-05-05T02:02:04.349Z,2.87
2019-05-05T02:04:31.179Z,3.17
2019-05-05T02:06:57.747Z,3.43
2019-05-05T02:09:25.139Z,3.40
2019-05-05T02:11:51.950Z,3.80
2019-05-05T02:14:18.472Z,3.30
2019-05-05T02:16:45.257Z,3.53
2019-05-05T02:19:14.191Z,3.57
2019-05-05T02:21:45.389Z,3.93
2019-05-05T02:24:12.025Z,4.10
2019-05-05T02:26:38.558Z,4.13
2019-05-05T02:29:11.467Z,3.83
2019-05-05T02:31:56.347Z,3.70
2019-05-05T02:34:25.700Z,3.93
2019-05-05T02:36:52.468Z,3.40
2019-05-05T02:39:19.080Z,3.30
2019-05-05T02:41:45.928Z,3.90
2019-05-05T02:44:15.448Z,3.27
2019-05-05T02:46:56.952Z,3.40
2019-05-05T02:49:25.533Z,3.33
2019-05-05T02:51:55.145Z,3.77
2019-05-05T02:54:22.316Z,4.13
2019-05-05T02:56:50.684Z,3.43
2019-05-05T02:59:25.828Z,3.90
2019-05-05T03:01:56.698Z,3.17
2019-05-05T03:04:24.455Z,3.83
2019-05-05T03:06:54.158Z,3.90
2019-05-05T03:09:21.599Z,3.73
2019-05-05T03:11:48.652Z,3.83
2019-05-05T03:14:16.626Z,3.50
2019-05-05T03:16:43.631Z,3.70
2019-05-05T03:19:10.321Z,3.80
2019-05-05T03:21:37.512Z,3.83
2019-05-05T03:24:05.913Z,3.87
2019-05-05T03:26:34.001Z,3.90
2019-05-05T03:29:02.363Z,3.57
2019-05-05T03:31:28.932Z,4.43
2019-05-05T03:33:57.683Z,4.37
2019-05-05T03:36:25.247Z,5.17
2019-05-05T03:38:54.317Z,4.63
2019-05-05T03:41:27.196Z,3.60
2019-05-05T03:44:04.703Z,3.60
2019-05-05T03:46:34.350Z,4.47
2019-05-05T03:49:01.113Z,4.23
2019-05-05T03:51:28.234Z,4.03
2019-05-05T03:53:55.603Z,4.37
2019-05-05T03:56:24.148Z,4.53
2019-05-05T03:58:51.087Z,4.60
2019-05-05T04:01:35.137Z,4.60
2019-05-05T04:04:20.375Z,4.10
2019-05-05T04:06:48.145Z,4.30
2019-05-05T04:09:14.859Z,3.50
2019-05-05T04:11:41.705Z,4.40
2019-05-05T04:14:08.835Z,4.17
2019-05-05T04:16:43.597Z,3.73
2019-05-05T04:19:13.908Z,3.70
2019-05-05T04:21:40.812Z,3.90
2019-05-05T04:24:09.476Z,4.17
2019-05-05T04:26:35.954Z,3.87
2019-05-05T04:29:05.247Z,3.73
2019-05-05T04:31:31.108Z,3.93
2019-05-05T04:33:57.627Z,3.53
2019-05-05T04:36:25.257Z,4.20
2019-05-05T04:38:54.652Z,3.70
2019-05-05T04:41:21.408Z,3.30
2019-05-05T04:43:48.050Z,3.87
2019-05-05T04:46:14.887Z,3.67
2019-05-05T04:48:56.065Z,2.93
2019-05-05T04:51:26.837Z,3.97
2019-05-05T04:54:10.504Z,3.63
2019-05-05T04:56:44.878Z,3.13
2019-05-05T04:59:11.785Z,3.40
2019-05-05T05:01:38.431Z,3.00
2019-05-05T05:04:28.418Z,3.53
2019-05-05T05:06:56.388Z,3.50
2019-05-05T05:09:23.814Z,3.13
2019-05-05T05:11:50.711Z,3.03
2019-05-05T05:14:19.799Z,3.00
2019-05-05T05:16:47.573Z,2.50
2019-05-05T05:19:14.107Z,2.70
2019-05-05T05:21:43.503Z,2.43
2019-05-05T05:24:10.190Z,2.50
2019-05-05T05:26:36.753Z,2.43
2019-05-05T05:29:04.528Z,2.70
2019-05-05T05:31:31.239Z,2.33
2019-05-05T05:33:57.802Z,2.50
2019-05-05T05:36:25.140Z,2.37
2019-05-05T05:38:54.275Z,2.03
2019-05-05T05:41:40.687Z,1.90
2019-05-05T05:44:15.845Z,2.27
2019-05-05T05:46:58.896Z,1.70
2019-05-05T05:49:50.928Z,1.60
2019-05-05T05:52:19.280Z,1.80
2019-05-05T05:54:48.033Z,1.60
2019-05-05T05:57:14.931Z,1.80
2019-05-05T05:59:41.592Z,1.50
2019-05-05T06:02:12.210Z,1.47
2019-05-05T06:04:59.382Z,1.10
2019-05-05T06:07:25.963Z,1.43
2019-05-05T06:09:54.223Z,1.20
2019-05-05T06:12:24.565Z,1.47
2019-05-05T06:14:53.564Z,1.40
2019-05-05T06:17:20.135Z,1.57
2019-05-05T06:19:47.316Z,1.80
2019-05-05T06:22:17.893Z,1.40
2019-05-05T06:24:43.916Z,1.23
2019-05-05T06:27:10.784Z,2.23
2019-05-05T06:29:40.535Z,1.53
2019-05-05T06:32:07.201Z,1.10
2019-05-05T06:34:34.032Z,1.43
2019-05-05T06:37:00.614Z,1.97
2019-05-05T06:39:27.154Z,1.50
2019-05-05T06:42:00.389Z,1.10
2019-05-05T06:44:51.195Z,1.07
2019-05-05T06:47:20.698Z,1.57
2019-05-05T06:49:47.427Z,1.33
2019-05-05T06:52:14.349Z,0.97
2019-05-05T06:54:43.677Z,1.00
2019-05-05T06:57:09.971Z,1.03
2019-05-05T06:59:36.539Z,1.00
2019-05-05T07:02:04.492Z,1.27
2019-05-05T07:04:31.092Z,0.97
2019-05-05T07:06:57.661Z,1.00
2019-05-05T07:09:24.567Z,1.20
2019-05-05T07:11:51.207Z,1.93
2019-05-05T07:14:19.896Z,1.53
2019-05-05T07:16:46.531Z,1.20
2019-05-05T07:19:14.710Z,1.10
2019-05-05T07:21:43.500Z,1.40
2019-05-05T07:24:10.241Z,1.40
2019-05-05T07:26:36.847Z,1.17
2019-05-05T07:29:04.569Z,1.43
2019-05-05T07:31:34.265Z,1.70
2019-05-05T07:34:01.594Z,2.07
2019-05-05T07:36:35.834Z,1.23
2019-05-05T07:39:14.339Z,1.00
2019-05-05T07:41:44.788Z,1.20
2019-05-05T07:44:23.489Z,1.20
2019-05-05T07:46:39.829Z,1.00
2019-05-05T07:49:06.357Z,1.13
2019-05-05T07:51:33.678Z,1.10
2019-05-05T07:54:03.643Z,1.27
2019-05-05T07:56:29.956Z,0.80
2019-05-05T07:58:57.644Z,0.70
2019-05-05T08:01:24.537Z,1.07
2019-05-05T08:03:53.832Z,1.30
2019-05-05T08:06:20.596Z,1.30
2019-05-05T08:08:48.609Z,1.03
2019-05-05T08:11:15.243Z,1.20
2019-05-05T08:13:44.127Z,1.20
2019-05-05T08:16:20.593Z,1.27
2019-05-05T08:19:05.522Z,1.00
2019-05-05T08:21:32.200Z,1.30
2019-05-05T08:24:16.805Z,1.40
2019-05-05T08:26:54.668Z,1.60
2019-05-05T08:29:40.611Z,1.23
2019-05-05T08:32:23.878Z,1.00
2019-05-05T08:34:58.109Z,1.20
2019-05-05T08:37:39.779Z,1.20
2019-05-05T08:40:06.489Z,1.30
2019-05-05T08:42:33.931Z,1.50
2019-05-05T08:45:39.210Z,1.17
2019-05-05T08:48:05.758Z,1.30
2019-05-05T08:50:34.607Z,1.27
2019-05-05T08:53:04.491Z,1.07
2019-05-05T08:55:30.958Z,1.10
2019-05-05T08:57:57.596Z,1.10
2019-05-05T09:00:53.667Z,1.50
2019-05-05T09:03:20.583Z,0.90
2019-05-05T09:05:47.127Z,0.93
2019-05-05T09:08:15.315Z,1.27
2019-05-05T09:11:08.604Z,1.77
2019-05-05T09:13:35.325Z,0.90
2019-05-05T09:16:03.745Z,1.00
2019-05-05T09:19:07.186Z,0.60
2019-05-05T09:21:34.539Z,0.90
2019-05-05T09:24:20.716Z,0.80
2019-05-05T09:26:59.970Z,1.10
2019-05-05T09:29:34.754Z,1.00
2019-05-05T09:32:03.912Z,1.10
2019-05-05T09:34:30.321Z,0.83
2019-05-05T09:37:03.785Z,0.80
2019-05-05T09:39:30.575Z,0.80
2019-05-05T09:41:59.118Z,0.80
2019-05-05T09:44:26.243Z,0.80
2019-05-05T09:46:53.846Z,1.07
2019-05-05T09:49:21.526Z,0.70
2019-05-05T09:51:55.124Z,1.40
2019-05-05T09:54:25.528Z,1.30
2019-05-05T09:56:53.810Z,0.70
2019-05-05T09:59:20.763Z,0.93
2019-05-05T10:01:47.418Z,0.83
2019-05-05T10:04:17.656Z,1.00
2019-05-05T10:06:49.600Z,0.80
2019-05-05T10:09:21.214Z,0.70
2019-05-05T10:11:50.864Z,0.90
2019-05-05T10:14:21.966Z,1.00
2019-05-05T10:16:54.130Z,1.03
2019-05-05T10:19:24.832Z,0.90
2019-05-05T10:21:59.344Z,0.90
2019-05-05T10:24:35.513Z,1.00
2019-05-05T10:27:02.181Z,0.90
2019-05-05T10:29:34.250Z,1.03
2019-05-05T10:32:00.932Z,0.80
2019-05-05T10:34:27.868Z,1.37
2019-05-05T10:36:54.415Z,1.17
2019-05-05T10:39:49.969Z,1.30
2019-05-05T10:42:16.628Z,0.70
2019-05-05T10:44:57.262Z,1.13
2019-05-05T10:47:33.499Z,0.83
2019-05-05T10:50:09.420Z,1.10
2019-05-05T10:52:45.310Z,0.80
2019-05-05T10:56:04.272Z,0.80
2019-05-05T10:58:41.445Z,1.20
2019-05-05T11:01:55.600Z,0.70
2019-05-05T11:04:24.232Z,0.60
2019-05-05T11:06:51.358Z,0.87
2019-05-05T11:09:18.324Z,1.27
2019-05-05T11:11:45.030Z,0.73
2019-05-05T11:14:14.198Z,1.00
2019-05-05T11:16:40.951Z,2.43
2019-05-05T11:19:07.435Z,0.93
2019-05-05T11:21:34.268Z,1.00
2019-05-05T11:24:03.238Z,0.80
2019-05-05T11:26:30.589Z,0.63
2019-05-05T11:28:57.186Z,0.93
2019-05-05T11:31:24.121Z,0.73
2019-05-05T11:34:14.002Z,0.90
2019-05-05T11:36:58.031Z,1.40
2019-05-05T11:39:24.884Z,0.87
2019-05-05T11:41:51.759Z,1.27
2019-05-05T11:44:18.312Z,1.07
2019-05-05T11:46:44.811Z,1.10
2019-05-05T11:49:11.372Z,1.03
2019-05-05T11:51:38.381Z,1.50
2019-05-05T11:54:05.397Z,1.03
2019-05-05T11:56:33.836Z,0.90
2019-05-05T11:59:01.015Z,1.00
2019-05-05T12:01:28.109Z,0.73
2019-05-05T12:03:54.725Z,0.87
2019-05-05T12:06:21.437Z,0.70
2019-05-05T12:08:47.939Z,0.50
2019-05-05T12:11:17.366Z,0.87
2019-05-05T12:13:44.650Z,0.93
2019-05-05T12:16:13.711Z,1.10
2019-05-05T12:18:40.777Z,0.90
2019-05-05T12:21:07.734Z,0.90
2019-05-05T12:23:34.354Z,0.90
2019-05-05T12:26:18.086Z,1.20
2019-05-05T12:28:48.694Z,0.87
2019-05-05T12:31:19.337Z,0.90
2019-05-05T12:33:47.247Z,0.93
2019-05-05T12:36:15.043Z,0.90
2019-05-05T12:38:43.923Z,0.63
2019-05-05T12:41:14.747Z,0.70
2019-05-05T12:43:44.295Z,0.90
2019-05-05T12:46:44.187Z,0.63
2019-05-05T12:49:13.741Z,0.90
2019-05-05T12:51:40.407Z,0.83
2019-05-05T12:54:07.469Z,0.73
2019-05-05T12:56:36.909Z,0.80
2019-05-05T12:59:07.653Z,1.17
2019-05-05T13:01:36.390Z,0.87
2019-05-05T13:04:03.640Z,0.83
2019-05-05T13:06:30.391Z,0.97
2019-05-05T13:08:57.127Z,1.10
2019-05-05T13:11:23.901Z,0.87
2019-05-05T13:13:50.746Z,0.90
2019-05-05T13:16:17.280Z,1.47
2019-05-05T13:18:43.863Z,1.27
2019-05-05T13:21:44.304Z,1.33
2019-05-05T13:24:29.056Z,0.60
2019-05-05T13:27:08.477Z,1.00
2019-05-05T13:29:33.834Z,1.03
2019-05-05T13:32:00.730Z,1.37
2019-05-05T13:34:27.919Z,1.30
2019-05-05T13:36:54.483Z,1.20
2019-05-05T13:39:21.416Z,1.33
2019-05-05T13:41:47.970Z,1.67
2019-05-05T13:44:36.799Z,1.30
2019-05-05T13:47:05.053Z,1.40
2019-05-05T13:49:37.138Z,1.37
2019-05-05T13:52:06.737Z,1.90
2019-05-05T13:54:33.592Z,0.90
2019-05-05T13:57:00.696Z,1.10
2019-05-05T13:59:44.436Z,1.37
2019-05-05T14:02:13.592Z,1.20
2019-05-05T14:04:40.101Z,1.13
2019-05-05T14:08:00.893Z,0.80
2019-05-05T14:10:27.594Z,0.80
2019-05-05T14:12:58.081Z,1.03
2019-05-05T14:15:24.756Z,0.90
2019-05-05T14:17:55.665Z,0.90
2019-05-05T14:20:23.977Z,1.00
2019-05-05T14:22:51.369Z,1.10
2019-05-05T14:25:20.837Z,1.00
2019-05-05T14:27:47.435Z,0.97
2019-05-05T14:30:26.356Z,1.10
2019-05-05T14:32:54.472Z,1.17
2019-05-05T14:35:27.718Z,1.00
2019-05-05T14:38:04.056Z,0.90
2019-05-05T14:40:30.861Z,1.10
2019-05-05T14:42:57.790Z,1.40
2019-05-05T14:45:24.454Z,0.97
2019-05-05T14:47:53.511Z,1.00
2019-05-05T14:50:20.915Z,2.30
2019-05-05T14:52:47.545Z,1.10
2019-05-05T14:55:15.678Z,1.33
2019-05-05T14:57:44.068Z,0.93
2019-05-05T15:00:15.924Z,0.90
2019-05-05T15:02:43.859Z,0.97
2019-05-05T15:05:29.921Z,1.63
2019-05-05T15:08:06.777Z,1.07
2019-05-05T15:10:49.959Z,1.33
2019-05-05T15:13:16.662Z,1.70
2019-05-05T15:15:44.393Z,1.00
2019-05-05T15:18:11.477Z,1.20
2019-05-05T15:21:23.605Z,1.30
2019-05-05T15:23:50.276Z,1.00
2019-05-05T15:26:16.860Z,1.40
2019-05-05T15:28:52.208Z,0.97
2019-05-05T15:31:14.397Z,1.10
2019-05-05T15:33:41.006Z,1.40
2019-05-05T15:36:07.835Z,1.13
2019-05-05T15:38:34.907Z,1.30
2019-05-05T15:41:03.792Z,1.17
2019-05-05T15:43:30.296Z,1.30
2019-05-05T15:45:57.811Z,1.70
2019-05-05T15:48:24.373Z,1.77
2019-05-05T15:50:51.046Z,1.70
2019-05-05T15:53:18.265Z,1.50
2019-05-05T15:55:45.141Z,1.00
2019-05-05T15:58:14.018Z,1.13
2019-05-05T16:00:40.624Z,1.20
2019-05-05T16:03:07.441Z,1.30
2019-05-05T16:05:34.510Z,1.30
2019-05-05T16:08:04.406Z,1.60
2019-05-05T16:10:31.220Z,1.33
2019-05-05T16:12:57.788Z,1.60
2019-05-05T16:15:50.066Z,1.40
2019-05-05T16:18:37.535Z,1.43
2019-05-05T16:21:14.102Z,1.40
2019-05-05T16:23:45.541Z,2.20
2019-05-05T16:26:13.912Z,1.87
2019-05-05T16:28:41.030Z,1.70
2019-05-05T16:31:07.609Z,1.60
2019-05-05T16:33:35.436Z,1.73
2019-05-05T16:36:02.018Z,1.47
2019-05-05T16:38:29.262Z,1.33
2019-05-05T16:40:55.916Z,3.77
2019-05-05T16:43:24.556Z,2.40
2019-05-05T16:45:54.053Z,2.30
2019-05-05T16:48:20.860Z,1.30
2019-05-05T16:50:47.504Z,1.30
2019-05-05T16:53:34.278Z,1.07
2019-05-05T16:56:00.894Z,1.20
2019-05-05T16:58:27.461Z,1.00
2019-05-05T17:00:54.586Z,1.10
2019-05-05T17:03:21.083Z,1.13
2019-05-05T17:05:47.717Z,1.50
2019-05-05T17:08:14.542Z,1.77
2019-05-05T17:10:49.189Z,1.00
2019-05-05T17:13:44.025Z,0.80
2019-05-05T17:16:28.620Z,1.23
2019-05-05T17:19:06.827Z,1.10
2019-05-05T17:21:53.434Z,1.63
2019-05-05T17:24:48.598Z,1.70
2019-05-05T17:27:16.053Z,0.90
2019-05-05T17:29:51.005Z,1.50
2019-05-05T17:32:17.843Z,1.00
2019-05-05T17:35:09.363Z,0.93
2019-05-05T17:37:38.483Z,1.00
2019-05-05T17:40:27.328Z,1.00
2019-05-05T17:43:21.875Z,1.10
2019-05-05T17:46:03.894Z,1.10
2019-05-05T17:49:05.708Z,1.00
2019-05-05T17:51:45.626Z,1.17
2019-05-05T17:54:30.872Z,1.03
2019-05-05T17:56:57.982Z,1.03
2019-05-05T17:59:27.736Z,1.37
2019-05-05T18:01:57.813Z,1.00
2019-05-05T18:04:25.198Z,1.10
2019-05-05T18:07:14.202Z,1.20
2019-05-05T18:10:16.708Z,1.40
2019-05-05T18:13:04.689Z,1.00
2019-05-05T18:15:54.368Z,1.00
2019-05-05T18:18:24.498Z,1.20
2019-05-05T18:20:54.355Z,1.47
2019-05-05T18:23:39.816Z,1.17
2019-05-05T18:26:07.883Z,1.10
2019-05-05T18:28:34.901Z,1.20
2019-05-05T18:31:05.477Z,1.27
2019-05-05T18:33:33.963Z,1.53
2019-05-05T18:36:06.480Z,1.87
2019-05-05T18:38:36.114Z,1.43
2019-05-05T18:41:10.400Z,1.50
2019-05-05T18:43:59.744Z,2.43
2019-05-05T18:46:35.682Z,2.20
2019-05-05T18:49:04.909Z,1.40
2019-05-05T18:51:34.619Z,1.70
2019-05-05T18:54:05.049Z,1.50
2019-05-05T18:56:41.510Z,1.47
2019-05-05T18:59:08.109Z,1.57
2019-05-05T19:01:55.715Z,1.77
2019-05-05T19:04:45.322Z,1.10
2019-05-05T19:07:21.012Z,1.20
2019-05-05T19:10:01.506Z,1.57
2019-05-05T19:12:34.696Z,2.50
2019-05-05T19:15:04.833Z,1.50
2019-05-05T19:17:38.742Z,1.40
2019-05-05T19:20:15.591Z,1.07
2019-05-05T19:22:43.703Z,1.37
2019-05-05T19:25:36.036Z,1.03
2019-05-05T19:28:09.016Z,1.40
2019-05-05T19:30:36.403Z,1.20
2019-05-05T19:33:04.978Z,1.70
2019-05-05T19:35:43.657Z,1.57
2019-05-05T19:38:00.221Z,1.93
2019-05-05T19:40:27.001Z,1.50
2019-05-05T19:42:54.257Z,1.13
2019-05-05T19:45:20.945Z,1.50
2019-05-05T19:47:47.745Z,1.73
2019-05-05T19:50:28.315Z,1.10
2019-05-05T19:52:55.208Z,1.20
2019-05-05T19:55:22.256Z,1.11
2019-05-05T19:57:49.098Z,1.27
2019-05-05T20:00:16.415Z,1.30
2019-05-05T20:02:45.829Z,1.20
2019-05-05T20:05:15.403Z,1.13
2019-05-05T20:07:44.048Z,1.40
2019-05-05T20:10:11.695Z,1.50
2019-05-05T20:12:44.881Z,1.27
2019-05-05T20:15:17.425Z,1.60
2019-05-05T20:17:45.018Z,1.10
2019-05-05T20:20:13.862Z,0.93
2019-05-05T20:22:41.011Z,1.47
2019-05-05T20:25:07.933Z,1.07
2019-05-05T20:27:35.958Z,1.50
2019-05-05T20:30:06.192Z,1.23
2019-05-05T20:32:41.650Z,1.13
2019-05-05T20:35:19.473Z,1.13
2019-05-05T20:37:54.286Z,1.00
2019-05-05T20:40:24.428Z,1.37
2019-05-05T20:42:51.091Z,1.63
2019-05-05T20:45:21.321Z,1.47
2019-05-05T20:47:49.921Z,1.27
2019-05-05T20:50:16.918Z,1.13
2019-05-05T20:52:44.232Z,1.10
2019-05-05T20:55:55.189Z,1.40
2019-05-05T20:58:23.832Z,1.73
2019-05-05T21:00:50.558Z,1.50
2019-05-05T21:03:17.159Z,1.83
2019-05-05T21:05:44.198Z,1.70
2019-05-05T21:08:11.002Z,2.10
2019-05-05T21:10:37.566Z,2.27
2019-05-05T21:13:04.196Z,2.13
2019-05-05T21:15:30.761Z,1.70
2019-05-05T21:17:57.486Z,1.70
2019-05-05T21:20:24.523Z,1.70
2019-05-05T21:22:59.648Z,2.13
2019-05-05T21:25:28.664Z,2.00
2019-05-05T21:27:55.326Z,2.00
2019-05-05T21:30:23.832Z,2.03
2019-05-05T21:32:50.559Z,1.90
2019-05-05T21:35:17.077Z,2.13
2019-05-05T21:37:44.850Z,2.07
2019-05-05T21:40:13.913Z,2.20
2019-05-05T21:42:40.740Z,2.10
2019-05-05T21:45:07.357Z,2.07
2019-05-05T21:47:34.539Z,2.40
2019-05-05T21:50:03.616Z,2.13
2019-05-05T21:52:36.301Z,2.27
2019-05-05T21:55:10.977Z,2.47
2019-05-05T21:57:53.313Z,2.10
2019-05-05T22:00:38.632Z,2.40
2019-05-05T22:03:05.505Z,2.00
2019-05-05T22:05:33.519Z,2.20
2019-05-05T22:08:00.974Z,2.20
2019-05-05T22:10:42.982Z,2.30
2019-05-05T22:13:09.617Z,2.20
2019-05-05T22:15:49.264Z,2.73
2019-05-05T22:18:16.255Z,2.23
2019-05-05T22:20:48.166Z,2.90
2019-05-05T22:23:14.789Z,2.23
2019-05-05T22:25:41.365Z,2.87
2019-05-05T22:28:07.938Z,2.70
2019-05-05T22:30:35.399Z,2.50
2019-05-05T22:33:05.788Z,2.40
2019-05-05T22:35:30.737Z,2.63
2019-05-05T22:38:06.129Z,2.73
2019-05-05T22:40:34.557Z,2.70
2019-05-05T22:43:03.548Z,2.47
2019-05-05T22:45:29.975Z,3.00
2019-05-05T22:47:56.603Z,2.43
2019-05-05T22:50:24.682Z,3.10
2019-05-05T22:52:51.490Z,2.90
2019-05-05T22:55:18.130Z,2.73
2019-05-05T22:57:45.207Z,3.10
2019-05-05T23:00:25.788Z,2.60
2019-05-05T23:02:47.030Z,2.23
2019-05-05T23:06:06.610Z,2.80
2019-05-05T23:08:35.061Z,2.67
2019-05-05T23:11:03.872Z,3.17
2019-05-05T23:13:30.144Z,2.40
2019-05-05T23:16:53.798Z,2.43
2019-05-05T23:19:25.564Z,2.83
2019-05-05T23:22:00.932Z,3.03
2019-05-05T23:24:38.805Z,3.70
2019-05-05T23:27:05.287Z,3.20
2019-05-05T23:29:33.979Z,2.87
2019-05-05T23:32:56.431Z,3.07
2019-05-05T23:35:23.924Z,2.87
2019-05-05T23:38:21.136Z,2.30
2019-05-05T23:40:47.709Z,3.43
2019-05-05T23:43:14.431Z,3.03
2019-05-05T23:45:41.299Z,2.87
2019-05-05T23:48:07.939Z,3.03
2019-05-05T23:50:34.833Z,3.43
2019-05-05T23:53:01.386Z,3.10
2019-05-05T23:55:46.613Z,3.47
2019-05-05T23:58:14.381Z,3.43
